Time;durP1;ratioP1;P1;durP2;ratioP2;P2;SDS_P1;SDS_P2;PMS_P1;PMS_P2;Temp;Humidity;BMP_temperature;BMP_pressure;BME280_temperature;BME280_humidity;BME280_pressure;Samples;Min_cycle;Max_cycle;Signal;HPM_P1;HPM_P2
2023/12/18 05:01:29;;;;;;;11.27;7.88;;;7.90;99.90;;;;;;5404692;23;20232;-73
2023/12/18 05:03:56;;;;;;;12.00;7.45;;;7.90;99.90;;;;;;4913131;29;20210;-73
2023/12/18 05:06:24;;;;;;;9.00;7.00;;;7.90;99.90;;;;;;4904726;29;20206;-73
2023/12/18 05:08:51;;;;;;;9.00;6.47;;;7.90;99.90;;;;;;4913644;29;20211;-73
2023/12/18 05:11:19;;;;;;;9.68;6.78;;;7.90;99.90;;;;;;4904376;29;20234;-73
2023/12/18 05:16:11;;;;;;;10.10;6.37;;;7.80;99.90;;;;;;4925151;23;20239;-72
2023/12/18 05:18:39;;;;;;;14.13;6.85;;;7.90;99.90;;;;;;4912969;29;20209;-72
2023/12/18 05:21:06;;;;;;;12.55;7.70;;;7.90;99.90;;;;;;4909423;29;20209;-72
2023/12/18 05:23:33;;;;;;;11.98;7.07;;;7.80;99.90;;;;;;4910729;29;20215;-72
2023/12/18 05:26:00;;;;;;;11.07;7.25;;;7.90;99.90;;;;;;4915344;29;20226;-71
2023/12/18 05:28:26;;;;;;;12.55;7.15;;;7.90;99.90;;;;;;4913878;29;20207;-72
2023/12/18 05:30:53;;;;;;;17.25;7.80;;;7.80;99.90;;;;;;4910480;29;20600;-71
2023/12/18 05:33:20;;;;;;;13.98;7.20;;;7.80;99.90;;;;;;4915347;29;20229;-71
2023/12/18 05:35:48;;;;;;;8.82;6.65;;;7.80;99.90;;;;;;4914488;29;20233;-71
2023/12/18 05:38:15;;;;;;;11.85;6.75;;;7.80;99.90;;;;;;4913371;29;20225;-71
2023/12/18 05:40:42;;;;;;;11.77;8.05;;;7.80;99.90;;;;;;4914799;29;20210;-72
2023/12/18 05:43:08;;;;;;;13.68;7.57;;;7.80;99.90;;;;;;4915483;29;20202;-71
2023/12/18 05:45:35;;;;;;;9.48;7.53;;;7.80;99.90;;;;;;4913417;29;20603;-71
2023/12/18 05:48:02;;;;;;;11.18;6.88;;;7.80;99.90;;;;;;4914457;29;20210;-71
2023/12/18 05:50:29;;;;;;;20.13;8.07;;;7.80;99.90;;;;;;4915930;29;20210;-71
2023/12/18 05:52:57;;;;;;;12.15;7.47;;;7.80;99.90;;;;;;4915448;29;20237;-70
2023/12/18 05:55:23;;;;;;;17.73;7.90;;;7.80;99.90;;;;;;4916692;29;20233;-71
2023/12/18 05:57:50;;;;;;;17.95;8.00;;;7.80;99.90;;;;;;4915700;29;20218;-71
2023/12/18 06:00:19;;;;;;;12.95;7.82;;;7.80;99.90;;;;;;4914769;29;20812;-70
2023/12/18 06:02:46;;;;;;;15.43;7.63;;;7.80;99.90;;;;;;4915039;29;20258;-71
2023/12/18 06:05:12;;;;;;;11.07;7.68;;;7.80;99.90;;;;;;4915441;29;20229;-71
2023/12/18 06:07:40;;;;;;;16.92;8.57;;;7.80;99.90;;;;;;4915611;29;20250;-70
2023/12/18 06:10:09;;;;;;;14.23;7.10;;;7.80;99.90;;;;;;4913748;29;20242;-71
2023/12/18 06:12:37;;;;;;;9.55;6.95;;;7.80;99.90;;;;;;4914483;29;20313;-71
2023/12/18 06:15:05;;;;;;;9.85;7.20;;;7.80;99.90;;;;;;4916385;29;20242;-70
2023/12/18 06:17:32;;;;;;;10.38;7.38;;;7.80;99.90;;;;;;4913319;29;20218;-71
2023/12/18 06:19:59;;;;;;;13.45;7.97;;;7.80;99.90;;;;;;4915377;29;20229;-71
2023/12/18 06:22:25;;;;;;;13.60;7.05;;;7.80;99.90;;;;;;4915252;29;20233;-71
2023/12/18 06:24:52;;;;;;;7.13;5.80;;;7.80;99.90;;;;;;4912991;29;20241;-70
2023/12/18 06:27:20;;;;;;;9.70;7.15;;;7.80;99.90;;;;;;4918079;29;20238;-70
2023/12/18 06:29:47;;;;;;;11.02;7.53;;;7.80;99.90;;;;;;4916803;29;20211;-70
2023/12/18 06:32:14;;;;;;;12.40;7.22;;;7.80;99.90;;;;;;4918094;29;20724;-70
2023/12/18 06:34:41;;;;;;;11.75;8.20;;;7.80;99.90;;;;;;4917189;29;20289;-70
2023/12/18 06:37:07;;;;;;;11.65;7.03;;;7.80;99.90;;;;;;4917471;29;20238;-71
2023/12/18 06:39:34;;;;;;;14.65;8.80;;;7.80;99.90;;;;;;4916575;29;20214;-70
2023/12/18 06:42:01;;;;;;;10.73;7.43;;;7.80;99.90;;;;;;4913764;29;20207;-71
2023/12/18 06:44:29;;;;;;;11.93;7.82;;;7.80;99.90;;;;;;4915919;29;20230;-70
2023/12/18 06:46:56;;;;;;;9.68;8.60;;;7.80;99.90;;;;;;4910841;29;20202;-70
2023/12/18 06:49:22;;;;;;;18.05;10.68;;;7.80;99.90;;;;;;4915507;29;20218;-70
2023/12/18 06:51:50;;;;;;;13.85;7.55;;;7.80;99.90;;;;;;4917479;29;20234;-70
2023/12/18 06:54:17;;;;;;;10.77;6.95;;;7.80;99.90;;;;;;4917218;29;20735;-70
2023/12/18 06:56:44;;;;;;;13.43;9.70;;;7.80;99.90;;;;;;4914208;29;20207;-70
2023/12/18 06:59:10;;;;;;;13.70;7.88;;;7.80;99.90;;;;;;4917618;29;20215;-70
2023/12/18 07:01:38;;;;;;;12.55;8.15;;;7.80;99.90;;;;;;4913662;29;20202;-70
2023/12/18 07:04:06;;;;;;;9.13;7.15;;;7.80;99.90;;;;;;4915948;29;20234;-70
2023/12/18 07:06:33;;;;;;;12.32;6.60;;;7.80;99.90;;;;;;4915921;29;20210;-70
2023/12/18 07:09:00;;;;;;;13.65;8.48;;;7.80;99.90;;;;;;4913334;29;20214;-70
2023/12/18 07:11:27;;;;;;;11.77;7.75;;;7.80;99.90;;;;;;4914869;29;20219;-70
2023/12/18 07:13:53;;;;;;;17.73;7.20;;;7.70;99.90;;;;;;4914389;29;20674;-70
2023/12/18 07:16:21;;;;;;;10.75;6.93;;;7.70;99.90;;;;;;4915978;29;20225;-70
2023/12/18 07:18:49;;;;;;;15.05;8.00;;;7.70;99.90;;;;;;4916240;29;20210;-70
2023/12/18 07:21:15;;;;;;;13.23;8.65;;;7.70;99.90;;;;;;4914256;29;20214;-70
2023/12/18 07:23:43;;;;;;;10.45;7.13;;;7.70;99.90;;;;;;4913987;29;20211;-70
2023/12/18 07:26:13;;;;;;;13.30;7.85;;;7.70;99.90;;;;;;4912509;29;20231;-70
2023/12/18 07:28:40;;;;;;;11.30;7.60;;;7.70;99.90;;;;;;4914852;29;20286;-70
2023/12/18 07:31:08;;;;;;;10.77;6.72;;;7.70;99.90;;;;;;4916275;29;20248;-70
2023/12/18 07:33:35;;;;;;;13.50;7.60;;;7.70;99.90;;;;;;4915356;29;20248;-70
2023/12/18 07:36:04;;;;;;;13.05;8.73;;;7.70;99.90;;;;;;4914501;29;20231;-71
2023/12/18 07:38:30;;;;;;;21.05;8.38;;;7.70;99.90;;;;;;4913575;29;20589;-71
2023/12/18 07:40:57;;;;;;;13.30;8.20;;;7.70;99.90;;;;;;4914113;29;20215;-70
2023/12/18 07:43:24;;;;;;;10.00;7.85;;;7.70;99.90;;;;;;4914900;29;20217;-71
2023/12/18 07:45:51;;;;;;;13.90;8.00;;;7.70;99.90;;;;;;4913019;29;20231;-71
2023/12/18 07:48:21;;;;;;;13.13;8.15;;;7.70;99.90;;;;;;4911595;29;20224;-70
2023/12/18 07:50:48;;;;;;;13.43;8.20;;;7.70;99.90;;;;;;4913364;29;20214;-70
2023/12/18 07:53:17;;;;;;;13.93;8.40;;;7.70;99.90;;;;;;4912828;29;20261;-70
2023/12/18 07:55:44;;;;;;;12.60;8.75;;;7.70;99.90;;;;;;4915077;29;20717;-70
2023/12/18 07:58:11;;;;;;;19.20;8.60;;;7.70;99.90;;;;;;4913591;29;20214;-71
2023/12/18 08:00:38;;;;;;;17.98;9.65;;;7.70;99.90;;;;;;4911419;29;20214;-71
2023/12/18 08:03:05;;;;;;;13.93;8.23;;;7.70;99.90;;;;;;4913060;29;20222;-71
2023/12/18 08:05:32;;;;;;;20.40;8.57;;;7.70;99.90;;;;;;4911783;29;20743;-71
2023/12/18 08:07:59;;;;;;;15.73;8.13;;;7.70;99.90;;;;;;4913302;29;20274;-71
2023/12/18 08:10:27;;;;;;;16.45;8.82;;;7.80;99.90;;;;;;4911992;29;20685;-70
2023/12/18 08:12:53;;;;;;;14.00;10.02;;;7.80;99.90;;;;;;4914791;29;20230;-71
2023/12/18 08:15:20;;;;;;;20.45;8.18;;;7.80;99.90;;;;;;4912269;29;20246;-71
2023/12/18 08:17:47;;;;;;;18.42;9.50;;;7.80;99.90;;;;;;4914169;29;20214;-71
2023/12/18 08:20:15;;;;;;;21.45;10.57;;;7.80;99.90;;;;;;4910457;29;20215;-70
2023/12/18 08:22:42;;;;;;;10.13;6.68;;;7.80;99.90;;;;;;4908935;29;20286;-71
2023/12/18 08:25:09;;;;;;;15.63;8.05;;;7.80;99.90;;;;;;4910319;29;20238;-70
2023/12/18 08:27:37;;;;;;;13.98;8.43;;;7.80;99.90;;;;;;4905371;29;20230;-70
2023/12/18 08:30:05;;;;;;;14.00;7.85;;;7.80;99.90;;;;;;4912648;29;20222;-70
2023/12/18 08:32:32;;;;;;;12.55;7.82;;;7.80;99.90;;;;;;4914050;29;20282;-71
2023/12/18 08:35:00;;;;;;;13.85;7.95;;;7.70;99.90;;;;;;4914744;29;20226;-71
2023/12/18 08:37:27;;;;;;;14.20;9.25;;;7.80;99.90;;;;;;4913593;29;20507;-71
2023/12/18 08:39:53;;;;;;;14.00;9.02;;;7.80;99.90;;;;;;4912263;29;20221;-71
2023/12/18 08:42:20;;;;;;;20.20;8.63;;;7.80;99.90;;;;;;4914698;29;20198;-70
2023/12/18 08:44:48;;;;;;;13.13;8.20;;;7.80;99.90;;;;;;4908523;29;20222;-71
2023/12/18 08:47:15;;;;;;;20.38;9.95;;;7.80;99.90;;;;;;4913475;29;20223;-71
2023/12/18 08:49:42;;;;;;;17.77;10.07;;;7.80;99.90;;;;;;4912304;29;20217;-71
2023/12/18 08:52:08;;;;;;;18.60;8.80;;;7.80;99.90;;;;;;4912960;29;20237;-72
2023/12/18 08:54:35;;;;;;;14.02;9.70;;;7.80;99.90;;;;;;4911363;29;20230;-71
2023/12/18 08:57:02;;;;;;;13.15;8.00;;;7.80;99.90;;;;;;4909454;29;20278;-71
2023/12/18 08:59:29;;;;;;;22.70;9.65;;;7.80;99.90;;;;;;4911745;29;20218;-71
2023/12/18 09:01:57;;;;;;;20.60;11.45;;;7.80;99.90;;;;;;4916730;29;20199;-71
2023/12/18 09:04:24;;;;;;;9.70;8.05;;;7.80;99.90;;;;;;4918094;29;20237;-71
2023/12/18 09:06:50;;;;;;;15.77;9.00;;;7.80;99.90;;;;;;4915868;29;20266;-71
2023/12/18 09:09:17;;;;;;;12.70;9.00;;;7.80;99.90;;;;;;4913745;29;20213;-71
2023/12/18 09:11:44;;;;;;;13.50;9.82;;;7.80;99.90;;;;;;4918185;29;20231;-70
2023/12/18 09:14:11;;;;;;;14.75;9.07;;;7.80;99.90;;;;;;4917201;29;20242;-70
2023/12/18 09:16:39;;;;;;;12.00;8.25;;;7.90;99.90;;;;;;4916808;29;20226;-70
2023/12/18 09:19:07;;;;;;;11.30;7.10;;;7.90;99.90;;;;;;4910628;29;20274;-69
2023/12/18 09:21:33;;;;;;;20.38;9.98;;;7.90;99.90;;;;;;4917396;29;20677;-70
2023/12/18 09:24:00;;;;;;;14.65;8.95;;;7.90;99.90;;;;;;4915508;29;20234;-69
2023/12/18 09:26:27;;;;;;;16.48;9.65;;;7.90;99.90;;;;;;4916827;29;20586;-70
2023/12/18 09:28:54;;;;;;;19.23;9.50;;;7.90;99.90;;;;;;4910946;29;20206;-70
2023/12/18 09:31:21;;;;;;;15.15;9.52;;;8.00;99.90;;;;;;4913573;29;20258;-70
2023/12/18 09:33:48;;;;;;;16.20;8.40;;;8.00;99.90;;;;;;4915572;29;20241;-69
2023/12/18 09:36:17;;;;;;;19.70;8.63;;;8.00;99.90;;;;;;4912851;29;21382;-69
2023/12/18 09:38:44;;;;;;;15.68;10.00;;;8.00;99.90;;;;;;4914690;29;20620;-70
2023/12/18 09:41:11;;;;;;;17.00;10.38;;;8.00;99.90;;;;;;4918071;29;20315;-70
2023/12/18 09:43:37;;;;;;;18.00;9.43;;;8.00;99.90;;;;;;4916803;29;20209;-70
2023/12/18 09:46:04;;;;;;;20.33;9.68;;;8.00;99.90;;;;;;4909557;29;20230;-70
2023/12/18 09:48:31;;;;;;;16.02;9.40;;;8.00;99.90;;;;;;4917454;29;20301;-70
2023/12/18 09:50:58;;;;;;;14.68;9.18;;;8.00;99.90;;;;;;4912466;29;20214;-70
2023/12/18 09:53:27;;;;;;;19.08;8.63;;;8.00;99.90;;;;;;4914733;29;20246;-70
2023/12/18 09:55:55;;;;;;;17.58;9.90;;;8.00;99.90;;;;;;4911078;29;20314;-69
2023/12/18 09:58:23;;;;;;;13.85;8.43;;;8.00;99.90;;;;;;4913663;29;20290;-70
2023/12/18 10:00:51;;;;;;;19.70;10.48;;;8.00;99.90;;;;;;4904511;29;20214;-70
2023/12/18 10:03:18;;;;;;;13.30;9.02;;;8.00;99.90;;;;;;4917083;29;20211;-70
2023/12/18 10:05:46;;;;;;;16.67;8.88;;;8.00;99.90;;;;;;4912474;29;20226;-70
2023/12/18 10:08:13;;;;;;;18.23;9.70;;;8.10;99.90;;;;;;4912055;29;20695;-70
2023/12/18 10:10:43;;;;;;;20.13;10.48;;;8.10;99.90;;;;;;4916742;29;20249;-70
2023/12/18 10:13:13;;;;;;;19.77;9.07;;;8.10;99.90;;;;;;4916871;29;20226;-70
2023/12/18 10:15:42;;;;;;;16.45;9.90;;;8.10;99.90;;;;;;4917257;29;20329;-70
2023/12/18 10:18:09;;;;;;;15.68;8.45;;;8.10;99.90;;;;;;4910645;29;20290;-70
2023/12/18 10:20:36;;;;;;;20.88;9.80;;;8.10;99.90;;;;;;4898451;29;20866;-70
2023/12/18 10:23:05;;;;;;;21.48;8.90;;;8.10;99.90;;;;;;4898649;29;20208;-70
2023/12/18 10:25:31;;;;;;;20.38;8.57;;;8.10;99.90;;;;;;4898436;29;20729;-70
2023/12/18 10:27:59;;;;;;;17.13;10.27;;;8.10;99.90;;;;;;4898603;29;20235;-70
2023/12/18 10:30:29;;;;;;;9.73;6.75;;;8.20;99.90;;;;;;4899866;29;20219;-68
2023/12/18 10:32:57;;;;;;;18.40;9.73;;;8.10;99.90;;;;;;4912588;29;20337;-69
2023/12/18 10:35:23;;;;;;;14.45;9.38;;;8.20;99.90;;;;;;4913763;29;20242;-70
2023/12/18 10:37:55;;;;;;;19.40;9.93;;;8.20;99.90;;;;;;4917450;29;20217;-68
2023/12/18 10:40:25;;;;;;;17.48;8.77;;;8.20;99.90;;;;;;4915873;29;20206;-68
2023/12/18 10:43:12;;;;;;;16.60;9.60;;;8.20;99.90;;;;;;4911790;29;20591;-68
2023/12/18 10:45:40;;;;;;;15.13;9.15;;;8.20;99.90;;;;;;4905334;29;20249;-68
2023/12/18 10:48:08;;;;;;;22.45;7.63;;;8.20;99.90;;;;;;4909643;29;20207;-68
2023/12/18 10:50:36;;;;;;;24.02;10.57;;;8.30;99.90;;;;;;4914228;29;20213;-68
2023/12/18 10:53:05;;;;;;;13.57;7.63;;;8.30;99.90;;;;;;4912889;29;20330;-68
2023/12/18 10:55:32;;;;;;;13.32;8.55;;;8.30;99.90;;;;;;4910190;29;20230;-68
2023/12/18 10:58:01;;;;;;;16.63;8.80;;;8.30;99.90;;;;;;4915313;29;20219;-68
2023/12/18 11:00:30;;;;;;;14.35;9.05;;;8.30;99.90;;;;;;4909397;29;20673;-68
2023/12/18 11:02:57;;;;;;;16.20;8.27;;;8.30;99.90;;;;;;4910948;29;20210;-68
2023/12/18 11:05:25;;;;;;;12.02;7.90;;;8.30;99.90;;;;;;4913704;29;20321;-68
2023/12/18 11:07:52;;;;;;;23.58;10.10;;;8.30;99.90;;;;;;4911784;29;21760;-68
2023/12/18 11:10:19;;;;;;;13.98;8.40;;;8.30;99.90;;;;;;4914211;29;20218;-69
2023/12/18 11:12:51;;;;;;;15.30;8.38;;;8.40;99.90;;;;;;4908973;29;20225;-69
2023/12/18 11:15:29;;;;;;;14.48;7.85;;;8.40;99.90;;;;;;4905427;29;20586;-70
2023/12/18 11:18:06;;;;;;;17.08;9.00;;;8.40;99.90;;;;;;4909405;29;20211;-70
2023/12/18 11:20:35;;;;;;;25.52;9.85;;;8.50;99.90;;;;;;4915034;29;20214;-69
2023/12/18 11:23:03;;;;;;;17.27;8.38;;;8.40;99.90;;;;;;4915588;29;20207;-69
2023/12/18 11:25:33;;;;;;;14.60;7.80;;;8.50;99.90;;;;;;4899500;29;20228;-71
2023/12/18 11:28:02;;;;;;;30.00;8.85;;;8.60;99.90;;;;;;4904861;29;20209;-71
2023/12/18 11:30:30;;;;;;;13.73;7.70;;;8.70;99.90;;;;;;4913177;29;20249;-70
2023/12/18 11:33:03;;;;;;;19.55;8.80;;;8.70;99.90;;;;;;4909386;29;20912;-70
2023/12/18 11:35:32;;;;;;;14.98;7.63;;;8.70;99.90;;;;;;4914657;29;20754;-70
2023/12/18 11:38:03;;;;;;;10.73;7.22;;;8.70;99.90;;;;;;4915002;29;20203;-70
2023/12/18 11:40:39;;;;;;;16.23;8.13;;;8.70;99.90;;;;;;4915146;29;20216;-71
2023/12/18 11:43:07;;;;;;;19.05;9.20;;;8.70;99.90;;;;;;4903804;29;20662;-71
2023/12/18 11:45:36;;;;;;;9.30;7.45;;;8.60;99.90;;;;;;4914087;29;20232;-70
2023/12/18 11:48:06;;;;;;;11.82;8.25;;;8.60;99.90;;;;;;4915472;29;20247;-70
2023/12/18 11:50:35;;;;;;;11.88;8.10;;;8.60;99.90;;;;;;4908594;29;20327;-70
2023/12/18 11:53:02;;;;;;;14.23;8.13;;;8.60;99.90;;;;;;4915015;29;20238;-71
2023/12/18 11:55:43;;;;;;;12.40;8.00;;;8.60;99.90;;;;;;4913848;29;20239;-70
2023/12/18 11:58:10;;;;;;;17.48;9.93;;;8.60;99.90;;;;;;4907343;29;20214;-71
2023/12/18 12:00:37;;;;;;;12.93;8.43;;;8.60;99.90;;;;;;4914210;29;20214;-70
2023/12/18 12:03:06;;;;;;;12.60;8.55;;;8.50;99.90;;;;;;4914318;29;20214;-70
2023/12/18 12:05:33;;;;;;;16.55;7.75;;;8.50;99.90;;;;;;4914418;29;20243;-71
2023/12/18 12:08:01;;;;;;;10.30;7.05;;;8.50;99.90;;;;;;4911467;29;20210;-70
2023/12/18 12:10:31;;;;;;;10.80;7.63;;;8.50;99.90;;;;;;4914323;29;20259;-72
2023/12/18 12:12:58;;;;;;;17.80;8.30;;;8.50;99.90;;;;;;4909004;29;20239;-71
2023/12/18 12:15:28;;;;;;;12.40;7.07;;;8.50;99.90;;;;;;4914129;29;20241;-70
2023/12/18 12:18:02;;;;;;;14.18;7.85;;;8.50;99.90;;;;;;4913994;29;20294;-70
2023/12/18 12:20:30;;;;;;;17.92;9.20;;;8.50;99.90;;;;;;4912548;29;20222;-71
2023/12/18 12:22:57;;;;;;;15.15;8.88;;;8.50;99.90;;;;;;4908630;29;20208;-72
2023/12/18 12:25:24;;;;;;;15.45;7.80;;;8.50;99.90;;;;;;4914480;29;20231;-71
2023/12/18 12:27:51;;;;;;;15.68;6.57;;;8.50;99.90;;;;;;4909831;29;20223;-71
2023/12/18 12:30:18;;;;;;;14.43;8.43;;;8.50;99.90;;;;;;4909889;29;20206;-71
2023/12/18 12:32:46;;;;;;;15.02;7.70;;;8.50;99.90;;;;;;4914123;29;20219;-71
2023/12/18 12:35:15;;;;;;;10.07;7.03;;;8.50;99.90;;;;;;4912141;29;20234;-72
2023/12/18 12:37:43;;;;;;;12.40;8.05;;;8.50;99.90;;;;;;4910414;29;20207;-72
2023/12/18 12:40:11;;;;;;;12.18;7.03;;;8.70;99.90;;;;;;4915073;29;20229;-70
2023/12/18 12:42:38;;;;;;;9.65;6.85;;;8.50;99.90;;;;;;4911523;29;20286;-69
2023/12/18 12:45:05;;;;;;;11.65;8.38;;;8.50;99.90;;;;;;4911408;29;20253;-69
2023/12/18 12:47:32;;;;;;;13.00;7.80;;;8.50;99.90;;;;;;4913649;29;20208;-70
2023/12/18 12:50:04;;;;;;;14.48;8.35;;;8.50;99.90;;;;;;4914884;29;20654;-71
2023/12/18 12:52:33;;;;;;;13.05;7.78;;;8.50;99.90;;;;;;4912908;29;20214;-71
2023/12/18 12:55:01;;;;;;;15.52;8.88;;;8.40;99.90;;;;;;4915536;29;20248;-72
2023/12/18 12:57:28;;;;;;;12.60;7.18;;;8.40;99.90;;;;;;4914259;29;20258;-72
2023/12/18 12:59:55;;;;;;;13.13;8.57;;;8.40;99.90;;;;;;4912029;29;20862;-72
2023/12/18 13:02:23;;;;;;;13.35;7.82;;;8.40;99.90;;;;;;4913257;29;20223;-72
2023/12/18 13:04:50;;;;;;;11.43;8.35;;;8.40;99.90;;;;;;4913237;29;20234;-72
2023/12/18 13:07:18;;;;;;;13.55;7.53;;;8.40;99.90;;;;;;4910934;29;20207;-72
2023/12/18 13:09:45;;;;;;;10.07;8.40;;;8.40;99.90;;;;;;4911547;29;20211;-72
2023/12/18 13:12:14;;;;;;;15.23;9.02;;;8.40;99.90;;;;;;4910718;29;20317;-72
2023/12/18 13:14:41;;;;;;;16.27;8.98;;;8.40;99.90;;;;;;4912240;29;20242;-72
2023/12/18 13:17:08;;;;;;;16.73;7.43;;;8.40;99.90;;;;;;4907392;29;20204;-72
2023/12/18 13:19:35;;;;;;;12.27;7.97;;;8.40;99.90;;;;;;4903651;29;20213;-72
2023/12/18 13:22:02;;;;;;;10.85;7.47;;;8.40;99.90;;;;;;4907708;29;20586;-72
2023/12/18 13:24:29;;;;;;;11.68;7.65;;;8.40;99.90;;;;;;4902179;29;20243;-72
2023/12/18 13:26:56;;;;;;;10.27;8.50;;;8.40;99.90;;;;;;4899821;29;20210;-72
2023/12/18 13:29:24;;;;;;;15.77;10.07;;;8.40;99.90;;;;;;4913496;29;20210;-72
2023/12/18 13:31:52;;;;;;;11.05;8.00;;;8.40;99.90;;;;;;4914119;29;20677;-70
2023/12/18 13:34:19;;;;;;;13.60;7.45;;;8.40;99.90;;;;;;4906367;29;20230;-71
2023/12/18 13:36:47;;;;;;;18.73;9.82;;;8.40;99.90;;;;;;4914286;29;20214;-71
2023/12/18 13:39:14;;;;;;;21.80;11.02;;;8.40;99.90;;;;;;4912630;29;20215;-71
2023/12/18 13:41:41;;;;;;;11.68;8.13;;;8.30;99.90;;;;;;4908930;29;20214;-71
2023/12/18 13:44:07;;;;;;;11.57;8.25;;;8.30;99.90;;;;;;4912453;29;20262;-71
2023/12/18 13:46:35;;;;;;;13.30;9.05;;;8.30;99.90;;;;;;4914696;29;20226;-71
2023/12/18 13:49:02;;;;;;;13.32;8.57;;;8.30;99.90;;;;;;4908275;29;20214;-70
2023/12/18 13:51:29;;;;;;;16.35;10.35;;;8.30;99.90;;;;;;4910121;29;20214;-70
2023/12/18 13:53:55;;;;;;;11.52;7.78;;;8.30;99.90;;;;;;4909636;29;20792;-70
2023/12/18 13:56:22;;;;;;;16.70;8.30;;;8.20;99.90;;;;;;4910950;29;20211;-70
2023/12/18 13:58:49;;;;;;;16.73;8.63;;;8.20;99.90;;;;;;4915099;29;20219;-70
2023/12/18 14:01:15;;;;;;;16.20;8.10;;;8.20;99.90;;;;;;4915626;29;20701;-70
2023/12/18 14:03:43;;;;;;;20.10;10.50;;;8.20;99.90;;;;;;4916637;29;20307;-69
2023/12/18 14:06:10;;;;;;;15.73;7.97;;;8.20;99.90;;;;;;4912319;29;20317;-70
2023/12/18 14:08:40;;;;;;;17.33;9.15;;;8.10;99.90;;;;;;4916038;29;20215;-70
2023/12/18 14:11:07;;;;;;;18.80;10.65;;;8.10;99.90;;;;;;4912129;29;20686;-70
2023/12/18 14:13:34;;;;;;;13.30;8.63;;;8.10;99.90;;;;;;4916148;29;20289;-70
2023/12/18 14:16:03;;;;;;;16.08;8.88;;;8.10;99.90;;;;;;4917147;29;20234;-70
2023/12/18 14:18:29;;;;;;;16.95;9.20;;;8.10;99.90;;;;;;4913600;29;20635;-70
2023/12/18 14:20:57;;;;;;;11.82;8.50;;;8.10;99.90;;;;;;4909134;29;20218;-71
2023/12/18 14:23:24;;;;;;;16.25;9.73;;;8.10;99.90;;;;;;4908592;29;20207;-71
2023/12/18 14:25:51;;;;;;;17.38;8.65;;;8.10;99.90;;;;;;4914478;29;20299;-71
2023/12/18 14:28:18;;;;;;;17.10;9.80;;;8.10;99.90;;;;;;4912657;29;20210;-71
2023/12/18 14:30:45;;;;;;;12.38;7.82;;;8.00;99.90;;;;;;4914037;29;20216;-71
2023/12/18 14:33:12;;;;;;;14.15;8.68;;;8.10;99.90;;;;;;4911858;29;20217;-71
2023/12/18 14:35:38;;;;;;;11.57;7.60;;;8.10;99.90;;;;;;4914644;29;20235;-70
2023/12/18 14:38:07;;;;;;;13.15;7.95;;;8.10;99.90;;;;;;4913179;29;20216;-70
2023/12/18 14:40:34;;;;;;;10.98;9.00;;;8.10;99.90;;;;;;4911545;29;20689;-70
2023/12/18 14:43:00;;;;;;;17.17;8.23;;;8.10;99.90;;;;;;4911984;29;20206;-71
2023/12/18 14:45:27;;;;;;;13.40;8.15;;;8.10;99.90;;;;;;4905681;29;20246;-71
2023/12/18 14:47:54;;;;;;;10.45;8.98;;;8.00;99.90;;;;;;4913305;29;20249;-71
2023/12/18 14:50:20;;;;;;;13.93;7.85;;;8.00;99.90;;;;;;4915658;29;20210;-72
2023/12/18 14:52:47;;;;;;;16.23;8.30;;;8.00;99.90;;;;;;4916321;29;20217;-71
2023/12/18 14:55:15;;;;;;;12.40;6.68;;;8.00;99.90;;;;;;4915152;29;20230;-71
2023/12/18 14:57:42;;;;;;;14.75;8.90;;;8.10;99.90;;;;;;4911916;29;20211;-72
2023/12/18 15:00:10;;;;;;;15.68;9.50;;;8.00;99.90;;;;;;4908711;29;20207;-72
2023/12/18 15:02:37;;;;;;;19.38;9.05;;;8.00;99.90;;;;;;4910925;29;20301;-72
2023/12/18 15:05:04;;;;;;;14.80;9.32;;;8.00;99.90;;;;;;4910813;29;20226;-72
2023/12/18 15:07:31;;;;;;;12.82;8.70;;;8.00;99.90;;;;;;4913475;29;20563;-71
2023/12/18 15:09:58;;;;;;;14.00;9.05;;;8.00;99.90;;;;;;4905231;29;20207;-71
2023/12/18 15:12:26;;;;;;;14.80;8.57;;;8.00;99.90;;;;;;4913390;29;20218;-71
2023/12/18 15:14:52;;;;;;;20.67;10.48;;;8.00;99.90;;;;;;4912912;29;20234;-70
2023/12/18 15:17:19;;;;;;;12.50;9.25;;;8.00;99.90;;;;;;4915427;29;20230;-70
2023/12/18 15:19:46;;;;;;;18.52;8.20;;;8.00;99.90;;;;;;4912292;29;20674;-71
2023/12/18 15:22:13;;;;;;;13.57;8.40;;;8.00;99.90;;;;;;4908909;29;20223;-71
2023/12/18 15:24:40;;;;;;;20.05;10.70;;;8.00;99.90;;;;;;4914339;29;20235;-70
2023/12/18 15:27:07;;;;;;;16.45;9.52;;;8.00;99.90;;;;;;4915368;29;20216;-71
2023/12/18 15:29:35;;;;;;;15.80;9.77;;;8.00;99.90;;;;;;4913037;29;20702;-71
2023/12/18 15:32:02;;;;;;;18.13;10.18;;;8.00;99.90;;;;;;4913261;29;20206;-71
2023/12/18 15:34:28;;;;;;;21.27;10.70;;;8.00;99.90;;;;;;4909804;29;20242;-73
2023/12/18 15:36:55;;;;;;;18.67;10.07;;;8.00;99.90;;;;;;4912501;29;20226;-72
2023/12/18 15:39:22;;;;;;;20.05;9.43;;;8.00;99.90;;;;;;4913467;29;20264;-72
2023/12/18 15:41:49;;;;;;;15.68;8.32;;;8.00;99.90;;;;;;4911004;29;20671;-70
2023/12/18 15:44:15;;;;;;;17.52;9.50;;;8.00;99.90;;;;;;4911461;29;20247;-71
2023/12/18 15:46:44;;;;;;;17.33;9.75;;;8.00;99.90;;;;;;4914415;29;20681;-72
2023/12/18 15:49:10;;;;;;;21.90;11.18;;;8.00;99.90;;;;;;4912657;29;20237;-72
2023/12/18 15:51:37;;;;;;;25.30;12.73;;;7.90;99.90;;;;;;4913751;29;20206;-71
2023/12/18 15:54:04;;;;;;;18.67;9.00;;;7.90;99.90;;;;;;4913358;29;20214;-72
2023/12/18 15:56:31;;;;;;;17.52;10.20;;;7.90;99.90;;;;;;4914900;29;20211;-71
2023/12/18 15:58:57;;;;;;;24.52;10.93;;;7.90;99.90;;;;;;4912222;29;20717;-71
2023/12/18 16:01:25;;;;;;;15.63;9.85;;;7.90;99.90;;;;;;4910575;29;20229;-72
2023/12/18 16:03:53;;;;;;;22.13;9.43;;;7.90;99.90;;;;;;4914280;29;20646;-71
2023/12/18 16:06:19;;;;;;;15.10;9.32;;;7.90;99.90;;;;;;4910795;29;20302;-72
2023/12/18 16:08:46;;;;;;;24.80;10.90;;;7.90;99.90;;;;;;4913342;29;20224;-72
2023/12/18 16:11:13;;;;;;;20.10;12.20;;;7.90;99.90;;;;;;4912753;29;20207;-73
2023/12/18 16:13:39;;;;;;;18.88;9.98;;;7.90;99.90;;;;;;4913950;29;20207;-74
2023/12/18 16:16:59;;;;;;;25.42;12.05;;;7.90;99.90;;;;;;4907059;29;20251;-74
2023/12/18 16:19:27;;;;;;;15.55;8.93;;;7.90;99.90;;;;;;4909179;29;20274;-73
2023/12/18 16:21:54;;;;;;;18.60;9.75;;;7.90;99.90;;;;;;4912613;29;20592;-71
2023/12/18 16:24:21;;;;;;;20.50;10.63;;;7.90;99.90;;;;;;4914645;29;20338;-72
2023/12/18 16:26:48;;;;;;;17.67;8.73;;;7.90;99.90;;;;;;4914616;29;20688;-73
2023/12/18 16:29:14;;;;;;;20.55;10.45;;;7.90;99.90;;;;;;4913261;29;20588;-73
2023/12/18 16:31:41;;;;;;;22.73;12.07;;;7.90;99.90;;;;;;4913413;29;20222;-73
2023/12/18 16:34:09;;;;;;;19.05;11.38;;;7.90;99.90;;;;;;4910040;29;20247;-72
2023/12/18 16:36:37;;;;;;;18.70;11.65;;;7.90;99.90;;;;;;4910364;29;20210;-72
2023/12/18 16:39:05;;;;;;;19.25;11.95;;;7.90;99.90;;;;;;4911436;29;20206;-72
2023/12/18 16:41:32;;;;;;;22.48;13.63;;;7.90;99.90;;;;;;4913593;29;20218;-72
2023/12/18 16:43:59;;;;;;;21.95;13.40;;;7.90;99.90;;;;;;4912215;29;20214;-73
2023/12/18 16:46:27;;;;;;;21.75;11.43;;;7.90;99.90;;;;;;4912709;29;20255;-73
2023/12/18 16:48:53;;;;;;;25.60;13.27;;;7.90;99.90;;;;;;4914887;29;20214;-74
2023/12/18 16:51:22;;;;;;;22.02;12.80;;;7.90;99.90;;;;;;4914001;29;20219;-74
2023/12/18 16:53:50;;;;;;;21.10;11.88;;;7.90;99.90;;;;;;4914175;29;20361;-73
2023/12/18 16:56:16;;;;;;;22.17;12.07;;;7.90;99.90;;;;;;4913721;29;20329;-74
2023/12/18 16:58:43;;;;;;;27.80;14.27;;;7.90;99.90;;;;;;4913677;29;20733;-74
2023/12/18 17:01:10;;;;;;;24.50;12.52;;;7.80;99.90;;;;;;4913046;29;20207;-74
2023/12/18 17:03:37;;;;;;;31.35;13.73;;;7.90;99.90;;;;;;4909534;29;20210;-74
2023/12/18 17:06:04;;;;;;;24.35;12.68;;;7.90;99.90;;;;;;4913766;29;20230;-73
2023/12/18 17:08:31;;;;;;;21.95;12.93;;;7.90;99.90;;;;;;4912544;29;20223;-74
2023/12/18 17:10:59;;;;;;;28.35;13.18;;;7.90;99.90;;;;;;4913674;29;20206;-72
2023/12/18 17:13:26;;;;;;;18.83;9.90;;;7.90;99.90;;;;;;4913264;29;20233;-74
2023/12/18 17:15:52;;;;;;;21.88;12.55;;;7.90;99.90;;;;;;4911460;29;20701;-73
2023/12/18 17:18:19;;;;;;;22.48;12.30;;;7.90;99.90;;;;;;4914211;29;20202;-73
2023/12/18 17:20:46;;;;;;;17.95;11.73;;;7.80;99.90;;;;;;4908144;29;20226;-73
2023/12/18 17:23:14;;;;;;;27.83;16.15;;;7.80;99.90;;;;;;4917857;29;20584;-74
2023/12/18 17:25:41;;;;;;;28.15;15.23;;;7.90;99.90;;;;;;4918128;29;20233;-74
2023/12/18 17:28:09;;;;;;;24.88;11.35;;;7.90;99.90;;;;;;4911953;29;20210;-74
2023/12/18 17:30:35;;;;;;;22.55;12.82;;;7.80;99.90;;;;;;4918614;29;20215;-73
2023/12/18 17:33:04;;;;;;;27.38;13.30;;;7.90;99.90;;;;;;4913176;29;20258;-73
2023/12/18 17:35:31;;;;;;;25.55;14.43;;;7.90;99.90;;;;;;4914292;29;20249;-74
2023/12/18 17:37:57;;;;;;;25.25;13.98;;;7.90;99.90;;;;;;4916412;29;20223;-73
2023/12/18 17:40:24;;;;;;;23.17;12.23;;;7.80;99.90;;;;;;4917007;29;20217;-71
2023/12/18 17:42:51;;;;;;;25.83;12.85;;;7.90;99.90;;;;;;4915401;29;20219;-72
2023/12/18 17:45:21;;;;;;;26.42;12.40;;;7.90;99.90;;;;;;4917358;29;20620;-70
2023/12/18 17:47:48;;;;;;;24.88;11.93;;;7.90;99.90;;;;;;4915193;29;20210;-71
2023/12/18 17:50:14;;;;;;;25.00;15.48;;;7.80;99.90;;;;;;4917014;29;20229;-71